21  °C
Temperature
16  °C
  Dewpoint
   Humidity
Temp | Dewpoint | Humidity
11  km/h
Wind Speed
7  mph
Wind Speed
6  kts
Wind Speed
350°
Due North

Wind Speed
Partly Cloudy
Conditions
Pressure 1015.92 (hPa) - 30 (in)
Visibility 6.2 (mi) - 10.0 (km)

Current Conditions
LGTS
Location 6km (3.2mi)
Metar :LGTS 271050Z 35006KT 9999 FEW025 21/16 Q1016 NOSIG
Mon 27th May 12:50 pm

Airport
  Metar Aviation API Data Provided by https://www.checkwx.com/ CSS/SVG/PHP scripts by weather34.com © 2015-2019